createdAt,value
2023-03-10T00:01:51.163Z,2.77
2023-03-10T00:04:31.339Z,2.30
2023-03-10T00:07:05.592Z,2.33
2023-03-10T00:09:37.815Z,1.70
2023-03-10T00:12:28.536Z,2.10
2023-03-10T00:15:02.182Z,1.90
2023-03-10T00:17:34.105Z,1.70
2023-03-10T00:20:12.323Z,2.10
2023-03-10T00:22:46.942Z,1.57
2023-03-10T00:25:26.840Z,1.80
2023-03-10T00:28:07.449Z,1.80
2023-03-10T00:30:44.099Z,1.80
2023-03-10T00:33:14.985Z,1.87
2023-03-10T00:35:52.221Z,1.80
2023-03-10T00:38:31.562Z,1.87
2023-03-10T00:41:09.054Z,1.90
2023-03-10T00:43:40.825Z,1.60
2023-03-10T00:46:15.776Z,1.83
2023-03-10T00:48:47.374Z,1.73
2023-03-10T00:51:23.400Z,1.73
2023-03-10T00:53:54.644Z,1.40
2023-03-10T00:56:28.835Z,1.40
2023-03-10T00:59:02.571Z,1.57
2023-03-10T01:01:33.746Z,1.10
2023-03-10T01:04:11.222Z,1.60
2023-03-10T01:06:49.927Z,1.43
2023-03-10T01:09:19.347Z,1.50
2023-03-10T01:11:50.133Z,1.63
2023-03-10T01:14:27.479Z,1.00
2023-03-10T01:16:58.043Z,1.27
2023-03-10T01:19:36.492Z,1.37
2023-03-10T01:22:16.320Z,1.20
2023-03-10T01:24:52.257Z,1.30
2023-03-10T01:27:25.580Z,1.27
2023-03-10T01:29:57.304Z,1.00
2023-03-10T01:32:30.160Z,1.27
2023-03-10T01:35:10.688Z,1.30
2023-03-10T01:37:44.971Z,1.00
2023-03-10T01:40:21.006Z,1.63
2023-03-10T01:42:53.365Z,0.90
2023-03-10T01:46:11.145Z,0.90
2023-03-10T01:48:45.868Z,0.80
2023-03-10T01:51:15.378Z,0.97
2023-03-10T01:53:49.642Z,0.90
2023-03-10T01:56:25.057Z,0.90
2023-03-10T01:59:07.376Z,0.97
2023-03-10T02:01:41.906Z,1.10
2023-03-10T02:04:23.150Z,1.20
2023-03-10T02:06:57.221Z,0.80
2023-03-10T02:09:29.812Z,1.10
2023-03-10T02:12:13.894Z,1.37
2023-03-10T02:14:55.869Z,1.13
2023-03-10T02:17:27.796Z,0.90
2023-03-10T02:20:27.804Z,0.93
2023-03-10T02:23:06.133Z,0.90
2023-03-10T02:25:46.647Z,1.17
2023-03-10T02:28:39.542Z,0.80
2023-03-10T02:31:13.124Z,0.90
2023-03-10T02:33:45.176Z,1.20
2023-03-10T02:36:26.819Z,1.23
2023-03-10T02:38:59.503Z,0.90
2023-03-10T02:41:43.601Z,0.90
2023-03-10T02:44:29.254Z,1.00
2023-03-10T02:47:05.390Z,1.00
2023-03-10T02:49:45.956Z,0.90
2023-03-10T02:52:28.136Z,0.90
2023-03-10T02:55:08.834Z,0.83
2023-03-10T02:57:40.382Z,1.03
2023-03-10T03:00:29.589Z,1.00
2023-03-10T03:03:00.511Z,0.90
2023-03-10T03:05:31.489Z,1.23
2023-03-10T03:08:10.842Z,0.70
2023-03-10T03:10:41.752Z,0.80
2023-03-10T03:13:20.213Z,0.77
2023-03-10T03:16:07.494Z,0.80
2023-03-10T03:18:48.761Z,0.80
2023-03-10T03:21:21.302Z,0.90
2023-03-10T03:24:05.065Z,1.00
2023-03-10T03:26:44.422Z,1.00
2023-03-10T03:29:26.640Z,0.97
2023-03-10T03:32:09.716Z,1.30
2023-03-10T03:34:50.519Z,1.20
2023-03-10T03:37:24.888Z,1.07
2023-03-10T03:40:15.572Z,0.90
2023-03-10T03:42:49.981Z,0.90
2023-03-10T03:45:21.767Z,1.37
2023-03-10T03:47:54.221Z,1.43
2023-03-10T03:50:25.277Z,1.60
2023-03-10T03:53:09.018Z,1.17
2023-03-10T03:55:39.893Z,1.20
2023-03-10T03:58:20.496Z,1.50
2023-03-10T04:00:52.819Z,1.47
2023-03-10T04:03:28.873Z,1.40
2023-03-10T04:06:03.169Z,1.00
2023-03-10T04:08:34.975Z,1.37
2023-03-10T04:11:16.476Z,1.03
2023-03-10T04:13:55.043Z,1.10
2023-03-10T04:16:30.233Z,1.80
2023-03-10T04:19:03.504Z,1.47
2023-03-10T04:21:36.249Z,1.50
2023-03-10T04:24:14.990Z,1.20
2023-03-10T04:26:59.922Z,1.60
2023-03-10T04:29:31.012Z,1.50
2023-03-10T04:32:18.025Z,1.37
2023-03-10T04:35:02.101Z,1.50
2023-03-10T04:37:33.558Z,1.47
2023-03-10T04:40:12.557Z,1.50
2023-03-10T04:42:53.002Z,1.57
2023-03-10T04:45:25.796Z,1.87
2023-03-10T04:47:57.220Z,1.40
2023-03-10T04:50:44.467Z,1.60
2023-03-10T04:53:15.271Z,1.60
2023-03-10T04:55:53.451Z,1.60
2023-03-10T04:58:31.278Z,1.60
2023-03-10T05:01:03.572Z,1.20
2023-03-10T05:03:41.285Z,1.20
2023-03-10T05:06:25.496Z,1.40
2023-03-10T05:09:36.925Z,1.60
2023-03-10T05:12:10.834Z,1.87
2023-03-10T05:14:47.670Z,1.63
2023-03-10T05:17:27.480Z,1.80
2023-03-10T05:20:04.972Z,1.40
2023-03-10T05:22:50.929Z,1.13
2023-03-10T05:25:37.828Z,1.07
2023-03-10T05:28:22.777Z,1.17
2023-03-10T05:31:09.472Z,1.37
2023-03-10T05:33:43.924Z,1.23
2023-03-10T05:36:15.479Z,1.30
2023-03-10T05:39:08.563Z,1.60
2023-03-10T05:41:47.253Z,1.30
2023-03-10T05:44:22.102Z,1.13
2023-03-10T05:46:55.809Z,1.30
2023-03-10T05:49:27.960Z,1.60
2023-03-10T05:52:09.136Z,1.40
2023-03-10T05:54:45.308Z,1.17
2023-03-10T05:57:19.309Z,1.00
2023-03-10T05:59:52.546Z,1.10
2023-03-10T06:02:28.289Z,1.40
2023-03-10T06:04:57.458Z,1.53
2023-03-10T06:07:28.384Z,1.43
2023-03-10T06:10:06.213Z,1.50
2023-03-10T06:12:35.517Z,1.60
2023-03-10T06:15:14.170Z,1.40
2023-03-10T06:18:02.993Z,1.53
2023-03-10T06:20:39.874Z,1.80
2023-03-10T06:23:15.955Z,1.67
2023-03-10T06:26:01.780Z,1.73
2023-03-10T06:28:36.249Z,2.10
2023-03-10T06:31:18.740Z,1.60
2023-03-10T06:33:49.291Z,1.93
2023-03-10T06:36:21.390Z,2.27
2023-03-10T06:38:57.269Z,1.90
2023-03-10T06:41:34.903Z,1.90
2023-03-10T06:44:14.465Z,2.07
2023-03-10T06:46:44.391Z,1.83
2023-03-10T06:49:15.602Z,2.00
2023-03-10T06:51:49.312Z,2.40
2023-03-10T06:54:25.840Z,1.43
2023-03-10T06:57:03.303Z,1.63
2023-03-10T06:59:40.140Z,1.47
2023-03-10T07:02:16.456Z,1.50
2023-03-10T07:04:54.046Z,1.87
2023-03-10T07:07:33.745Z,1.57
2023-03-10T07:10:20.083Z,1.70
2023-03-10T07:13:01.268Z,1.50
2023-03-10T07:15:39.869Z,1.20
2023-03-10T07:18:11.109Z,1.20
2023-03-10T07:20:47.036Z,1.30
2023-03-10T07:23:20.803Z,1.63
2023-03-10T07:25:56.420Z,1.27
2023-03-10T07:28:33.521Z,1.10
2023-03-10T07:31:07.374Z,1.03
2023-03-10T07:33:35.342Z,1.20
2023-03-10T07:36:12.347Z,1.40
2023-03-10T07:38:48.207Z,1.40
2023-03-10T07:41:24.363Z,1.20
2023-03-10T07:43:59.710Z,1.20
2023-03-10T07:46:30.406Z,1.30
2023-03-10T07:49:11.231Z,1.00
2023-03-10T07:51:41.409Z,2.20
2023-03-10T07:54:16.407Z,1.30
2023-03-10T07:56:57.208Z,1.40
2023-03-10T07:59:39.053Z,1.03
2023-03-10T08:02:16.756Z,0.90
2023-03-10T08:04:52.704Z,1.00
2023-03-10T08:07:30.608Z,1.10
2023-03-10T08:10:01.504Z,1.27
2023-03-10T08:12:31.881Z,1.10
2023-03-10T08:15:18.969Z,1.17
2023-03-10T08:17:54.772Z,1.20
2023-03-10T08:20:29.030Z,1.30
2023-03-10T08:23:08.889Z,1.03
2023-03-10T08:25:43.997Z,1.07
2023-03-10T08:28:16.568Z,1.00
2023-03-10T08:31:05.383Z,1.10
2023-03-10T08:33:46.674Z,1.30
2023-03-10T08:36:21.087Z,1.00
2023-03-10T08:38:56.480Z,1.17
2023-03-10T08:41:30.296Z,1.03
2023-03-10T08:44:11.764Z,1.17
2023-03-10T08:46:46.641Z,1.93
2023-03-10T08:49:24.396Z,1.40
2023-03-10T08:51:54.966Z,1.40
2023-03-10T08:54:24.343Z,1.20
2023-03-10T08:57:01.396Z,1.17
2023-03-10T08:59:38.238Z,1.10
2023-03-10T09:02:15.380Z,1.30
2023-03-10T09:04:53.012Z,1.40
2023-03-10T09:07:29.951Z,1.80
2023-03-10T09:10:02.776Z,5.17
2023-03-10T09:12:39.418Z,1.30
2023-03-10T09:15:11.494Z,1.23
2023-03-10T09:17:49.390Z,1.70
2023-03-10T09:20:28.909Z,1.47
2023-03-10T09:23:03.764Z,1.07
2023-03-10T09:25:37.256Z,1.30
2023-03-10T09:28:13.896Z,1.17
2023-03-10T09:30:48.335Z,1.10
2023-03-10T09:33:23.120Z,0.80
2023-03-10T09:36:05.583Z,1.00
2023-03-10T09:38:37.739Z,0.73
2023-03-10T09:41:45.144Z,0.93
2023-03-10T09:44:28.216Z,1.50
2023-03-10T09:47:12.606Z,1.30
2023-03-10T09:49:56.325Z,0.90
2023-03-10T09:52:39.519Z,0.90
2023-03-10T09:55:30.576Z,0.87
2023-03-10T09:58:04.749Z,1.30
2023-03-10T10:00:59.882Z,0.90
2023-03-10T10:03:52.744Z,1.00
2023-03-10T10:06:30.215Z,1.20
2023-03-10T10:09:10.933Z,1.17
2023-03-10T10:11:44.038Z,1.40
2023-03-10T10:14:29.864Z,0.80
2023-03-10T10:17:10.112Z,1.00
2023-03-10T10:19:48.063Z,1.27
2023-03-10T10:22:29.539Z,1.20
2023-03-10T10:25:12.976Z,1.40
2023-03-10T10:27:43.160Z,1.07
2023-03-10T10:30:39.736Z,1.10
2023-03-10T10:33:10.300Z,1.33
2023-03-10T10:35:53.699Z,1.30
2023-03-10T10:38:32.645Z,1.00
2023-03-10T10:41:11.318Z,1.20
2023-03-10T10:43:49.966Z,1.10
2023-03-10T10:46:32.904Z,1.60
2023-03-10T10:49:28.822Z,1.30
2023-03-10T10:51:59.768Z,1.20
2023-03-10T10:54:35.856Z,1.40
2023-03-10T10:57:09.696Z,1.40
2023-03-10T10:59:38.972Z,1.63
2023-03-10T11:02:25.192Z,1.20
2023-03-10T11:04:58.995Z,1.60
2023-03-10T11:07:37.066Z,1.70
2023-03-10T11:10:18.602Z,1.53
2023-03-10T11:13:22.807Z,1.43
2023-03-10T11:16:05.636Z,1.50
2023-03-10T11:19:10.494Z,1.50
2023-03-10T11:21:54.638Z,1.27
2023-03-10T11:24:39.986Z,1.20
2023-03-10T11:27:21.815Z,1.27
2023-03-10T11:30:05.140Z,1.20
2023-03-10T11:32:42.344Z,1.40
2023-03-10T11:35:27.125Z,1.23
2023-03-10T11:38:17.508Z,1.30
2023-03-10T11:40:51.517Z,0.83
2023-03-10T11:43:36.695Z,1.50
2023-03-10T11:46:18.642Z,1.33
2023-03-10T11:49:03.227Z,1.47
2023-03-10T11:51:43.217Z,1.27
2023-03-10T11:54:27.410Z,1.30
2023-03-10T11:57:06.666Z,1.20
2023-03-10T11:59:49.412Z,1.00
2023-03-10T12:02:27.530Z,1.60
2023-03-10T12:05:07.341Z,1.33
2023-03-10T12:07:49.343Z,1.23
2023-03-10T12:10:27.084Z,1.40
2023-03-10T12:13:00.937Z,1.43
2023-03-10T12:15:40.072Z,1.10
2023-03-10T12:18:14.150Z,1.13
2023-03-10T12:20:46.103Z,1.60
2023-03-10T12:23:44.189Z,1.00
2023-03-10T12:26:17.397Z,1.10
2023-03-10T12:28:46.395Z,1.23
2023-03-10T12:31:57.323Z,1.27
2023-03-10T12:34:38.846Z,1.00
2023-03-10T12:37:16.979Z,1.00
2023-03-10T12:39:49.507Z,0.90
2023-03-10T12:42:36.607Z,0.80
2023-03-10T12:45:29.787Z,0.80
2023-03-10T12:48:14.796Z,0.70
2023-03-10T12:50:57.016Z,0.90
2023-03-10T12:53:33.749Z,0.60
2023-03-10T12:56:41.966Z,0.70
2023-03-10T12:59:23.535Z,0.90
2023-03-10T13:02:03.231Z,0.80
2023-03-10T13:04:42.816Z,0.70
2023-03-10T13:07:18.549Z,0.70
2023-03-10T13:09:55.756Z,0.70
2023-03-10T13:12:40.770Z,0.70
2023-03-10T13:15:27.263Z,0.80
2023-03-10T13:18:17.675Z,0.60
2023-03-10T13:21:02.053Z,1.43
2023-03-10T13:23:36.982Z,0.53
2023-03-10T13:26:13.446Z,0.50
2023-03-10T13:28:59.163Z,0.50
2023-03-10T13:31:40.387Z,0.50
2023-03-10T13:34:20.851Z,0.70
2023-03-10T13:36:52.916Z,0.60
2023-03-10T13:39:35.533Z,0.70
2023-03-10T13:42:21.375Z,0.50
2023-03-10T13:45:01.962Z,0.50
2023-03-10T13:47:37.161Z,0.50
2023-03-10T13:50:15.903Z,0.53
2023-03-10T13:53:01.357Z,0.60
2023-03-10T13:55:39.938Z,0.80
2023-03-10T13:58:17.367Z,0.77
2023-03-10T14:00:53.383Z,0.50
2023-03-10T14:03:32.372Z,0.57
2023-03-10T14:06:01.301Z,0.60
2023-03-10T14:08:36.160Z,0.63
2023-03-10T14:11:40.226Z,0.57
2023-03-10T14:14:11.684Z,0.60
2023-03-10T14:16:51.085Z,0.70
2023-03-10T14:19:51.603Z,0.53
2023-03-10T14:23:04.739Z,0.70
2023-03-10T14:25:49.569Z,0.60
2023-03-10T14:28:32.730Z,0.60
2023-03-10T14:31:05.383Z,0.60
2023-03-10T14:33:47.533Z,0.67
2023-03-10T14:36:21.539Z,0.60
2023-03-10T14:38:54.152Z,0.50
2023-03-10T14:41:37.142Z,0.60
2023-03-10T14:44:19.703Z,0.60
2023-03-10T14:46:56.400Z,0.97
2023-03-10T14:49:32.240Z,0.70
2023-03-10T14:52:04.865Z,0.60
2023-03-10T14:54:44.931Z,0.70
2023-03-10T14:57:29.822Z,0.80
2023-03-10T15:00:00.403Z,0.70
2023-03-10T15:02:30.861Z,1.10
2023-03-10T15:05:05.258Z,0.80
2023-03-10T15:07:42.195Z,0.73
2023-03-10T15:10:14.026Z,0.80
2023-03-10T15:13:01.116Z,0.90
2023-03-10T15:15:39.733Z,1.07
2023-03-10T15:18:15.912Z,0.80
2023-03-10T15:20:49.298Z,0.90
2023-03-10T15:23:25.130Z,1.00
2023-03-10T15:25:56.200Z,0.70
2023-03-10T15:28:41.315Z,0.57
2023-03-10T15:31:18.162Z,0.90
2023-03-10T15:33:52.669Z,0.60
2023-03-10T15:36:32.117Z,0.70
2023-03-10T15:39:09.851Z,0.93
2023-03-10T15:41:45.343Z,0.60
2023-03-10T15:44:26.911Z,0.93
2023-03-10T15:47:01.643Z,0.80
2023-03-10T15:49:43.353Z,0.80
2023-03-10T15:52:15.578Z,0.60
2023-03-10T15:54:47.053Z,0.70
2023-03-10T15:57:18.920Z,0.70
2023-03-10T15:59:57.367Z,0.63
2023-03-10T16:02:28.324Z,0.70
2023-03-10T16:05:02.561Z,0.80
2023-03-10T16:07:43.117Z,1.20
2023-03-10T16:10:20.814Z,0.90
2023-03-10T16:12:51.723Z,0.93
2023-03-10T16:15:38.029Z,1.00
2023-03-10T16:18:06.212Z,0.90
2023-03-10T16:20:36.528Z,0.90
2023-03-10T16:23:08.157Z,0.60
2023-03-10T16:25:42.897Z,0.80
2023-03-10T16:28:11.702Z,0.70
2023-03-10T16:30:50.751Z,0.80
2023-03-10T16:33:27.750Z,0.60
2023-03-10T16:36:06.896Z,0.87
2023-03-10T16:38:47.112Z,1.00
2023-03-10T16:41:20.047Z,0.80
2023-03-10T16:43:52.561Z,0.73
2023-03-10T16:46:30.353Z,1.00
2023-03-10T16:49:05.227Z,1.10
2023-03-10T16:51:39.169Z,0.97
2023-03-10T16:54:12.154Z,1.00
2023-03-10T16:56:44.233Z,1.03
2023-03-10T16:59:28.806Z,1.10
2023-03-10T17:02:05.976Z,1.17
2023-03-10T17:04:37.548Z,1.00
2023-03-10T17:07:08.224Z,1.40
2023-03-10T17:09:44.221Z,1.13
2023-03-10T17:12:18.159Z,1.30
2023-03-10T17:14:51.027Z,1.00
2023-03-10T17:17:29.461Z,1.50
2023-03-10T17:20:04.554Z,1.10
2023-03-10T17:22:32.413Z,1.00
2023-03-10T17:25:08.062Z,1.10
2023-03-10T17:27:41.739Z,1.57
2023-03-10T17:30:20.005Z,1.20
2023-03-10T17:33:00.759Z,1.37
2023-03-10T17:35:40.626Z,1.13
2023-03-10T17:38:14.901Z,1.30
2023-03-10T17:40:49.616Z,1.80
2023-03-10T17:43:34.110Z,1.60
2023-03-10T17:49:06.167Z,1.40
2023-03-10T17:51:47.294Z,1.90
2023-03-10T17:54:21.835Z,2.17
2023-03-10T17:56:54.598Z,1.73
2023-03-10T17:59:28.580Z,1.80
2023-03-10T18:02:03.129Z,1.90
2023-03-10T18:04:47.243Z,1.70
2023-03-10T18:07:25.772Z,1.67
2023-03-10T18:10:06.500Z,1.87
2023-03-10T18:12:44.058Z,1.60
2023-03-10T18:15:23.086Z,1.90
2023-03-10T18:17:56.725Z,1.77
2023-03-10T18:20:34.491Z,2.10
2023-03-10T18:23:15.230Z,2.23
2023-03-10T18:25:47.111Z,2.20
2023-03-10T18:28:20.649Z,1.80
2023-03-10T18:30:55.420Z,1.93
2023-03-10T18:33:24.913Z,2.17
2023-03-10T18:35:54.827Z,2.10
2023-03-10T18:38:28.877Z,2.60
2023-03-10T18:41:01.196Z,1.87
2023-03-10T18:43:35.980Z,2.00
2023-03-10T18:46:11.083Z,2.07
2023-03-10T18:49:09.864Z,1.77
2023-03-10T18:51:52.861Z,1.93
2023-03-10T18:54:30.774Z,2.00
2023-03-10T18:57:04.536Z,1.80
2023-03-10T18:59:41.780Z,1.73
2023-03-10T19:02:17.623Z,2.23
2023-03-10T19:04:51.584Z,2.47
2023-03-10T19:07:28.751Z,2.07
2023-03-10T19:10:07.143Z,1.90
2023-03-10T19:12:37.795Z,2.30
2023-03-10T19:15:10.353Z,2.00
2023-03-10T19:17:41.781Z,2.00
2023-03-10T19:20:13.968Z,1.83
2023-03-10T19:22:57.236Z,2.00
2023-03-10T19:25:31.741Z,1.90
2023-03-10T19:28:02.602Z,2.30
2023-03-10T19:30:37.877Z,1.90
2023-03-10T19:33:12.134Z,2.03
2023-03-10T19:35:59.440Z,2.20
2023-03-10T19:38:36.144Z,2.17
2023-03-10T19:41:16.293Z,1.90
2023-03-10T19:43:55.691Z,2.00
2023-03-10T19:46:33.034Z,2.10
2023-03-10T19:49:11.661Z,1.63
2023-03-10T19:51:45.801Z,2.10
2023-03-10T19:54:19.502Z,1.70
2023-03-10T19:56:50.414Z,1.60
2023-03-10T19:59:23.321Z,1.50
2023-03-10T20:01:54.103Z,1.77
2023-03-10T20:04:37.730Z,1.60
2023-03-10T20:07:17.981Z,1.47
2023-03-10T20:09:50.239Z,1.60
2023-03-10T20:12:30.104Z,1.60
2023-03-10T20:15:15.727Z,1.50
2023-03-10T20:17:49.117Z,1.70
2023-03-10T20:20:25.977Z,2.03
2023-03-10T20:23:04.743Z,1.70
2023-03-10T20:25:45.181Z,1.70
2023-03-10T20:28:15.750Z,1.57
2023-03-10T20:30:46.854Z,1.60
2023-03-10T20:33:32.106Z,2.40
2023-03-10T20:36:18.073Z,2.55
2023-03-10T20:38:52.535Z,2.17
2023-03-10T20:41:32.799Z,2.30
2023-03-10T20:44:03.673Z,2.50
2023-03-10T20:46:36.664Z,2.75
2023-03-10T20:49:11.577Z,3.45
2023-03-10T20:51:42.894Z,3.00
2023-03-10T20:54:37.434Z,3.10
2023-03-10T20:57:18.695Z,2.88
2023-03-10T20:59:49.200Z,3.70
2023-03-10T21:02:24.125Z,3.00
2023-03-10T21:04:58.495Z,3.50
2023-03-10T21:07:31.561Z,3.60
2023-03-10T21:10:04.903Z,3.00
2023-03-10T21:12:45.636Z,3.70
2023-03-10T21:15:22.989Z,3.42
2023-03-10T21:17:54.100Z,2.72
2023-03-10T21:20:33.366Z,3.08
2023-03-10T21:23:13.352Z,3.80
2023-03-10T21:25:50.907Z,3.63
2023-03-10T21:28:39.317Z,3.47
2023-03-10T21:31:11.664Z,3.25
2023-03-10T21:33:50.939Z,3.40
2023-03-10T21:36:23.030Z,2.80
2023-03-10T21:38:57.663Z,2.55
2023-03-10T21:41:30.185Z,3.13
2023-03-10T21:44:11.496Z,2.95
2023-03-10T21:46:53.325Z,2.90
2023-03-10T21:49:27.274Z,2.47
2023-03-10T21:51:58.634Z,2.58
2023-03-10T21:54:35.617Z,2.15
2023-03-10T21:57:08.319Z,2.78
2023-03-10T21:59:42.861Z,3.40
2023-03-10T22:02:24.150Z,2.97
2023-03-10T22:04:55.626Z,3.38
2023-03-10T22:07:30.889Z,2.80
2023-03-10T22:10:09.031Z,2.70
2023-03-10T22:12:49.695Z,2.50
2023-03-10T22:15:42.009Z,2.70
2023-03-10T22:18:21.520Z,2.80
2023-03-10T22:20:53.546Z,2.95
2023-03-10T22:23:33.230Z,2.50
2023-03-10T22:26:09.729Z,2.60
2023-03-10T22:28:40.587Z,2.72
2023-03-10T22:31:15.737Z,2.45
2023-03-10T22:33:56.480Z,2.50
2023-03-10T22:36:33.492Z,2.60
2023-03-10T22:39:06.213Z,2.25
2023-03-10T22:41:44.932Z,2.42
2023-03-10T22:44:17.423Z,2.50
2023-03-10T22:46:56.574Z,2.30
2023-03-10T22:49:30.226Z,2.88
2023-03-10T22:52:06.380Z,2.17
2023-03-10T22:54:44.770Z,1.83
2023-03-10T22:57:16.181Z,2.50
2023-03-10T22:59:56.523Z,2.20
2023-03-10T23:02:39.615Z,2.83
2023-03-10T23:05:15.760Z,2.70
2023-03-10T23:07:58.347Z,2.08
2023-03-10T23:10:34.416Z,2.22
2023-03-10T23:13:11.449Z,2.38
2023-03-10T23:15:42.989Z,2.38
2023-03-10T23:18:18.509Z,1.80
2023-03-10T23:20:58.053Z,1.90
2023-03-10T23:23:31.031Z,2.10
2023-03-10T23:26:11.888Z,1.95
2023-03-10T23:28:45.268Z,2.25
2023-03-10T23:31:17.106Z,2.13
2023-03-10T23:34:01.159Z,2.65
2023-03-10T23:36:40.690Z,2.20
2023-03-10T23:39:16.756Z,2.55
2023-03-10T23:41:59.453Z,2.38
2023-03-10T23:44:37.969Z,2.10
2023-03-10T23:47:11.510Z,1.98
2023-03-10T23:49:53.273Z,1.90
2023-03-10T23:52:30.532Z,2.30
2023-03-10T23:55:01.390Z,2.30
2023-03-10T23:57:41.564Z,2.10
